Time;durP1;ratioP1;P1;durP2;ratioP2;P2;SDS_P1;SDS_P2;PMS_P1;PMS_P2;Temp;Humidity;BMP_temperature;BMP_pressure;BME280_temperature;BME280_humidity;BME280_pressure;Samples;Min_cycle;Max_cycle;Signal;HPM_P1;HPM_P2
2023/12/05 00:00:25;;;;;;;16.05;10.95;;;6.90;60.10;;;;;;4999534;28;20404;-37
2023/12/05 00:02:53;;;;;;;17.25;11.30;;;6.90;60.10;;;;;;5000144;28;20043;-36
2023/12/05 00:05:20;;;;;;;14.70;10.18;;;6.90;60.10;;;;;;5001213;28;20054;-36
2023/12/05 00:07:48;;;;;;;17.40;11.07;;;6.90;60.20;;;;;;5002707;28;20479;-34
2023/12/05 00:10:16;;;;;;;15.77;10.00;;;6.90;60.20;;;;;;5004202;28;20057;-35
2023/12/05 00:12:43;;;;;;;16.08;11.27;;;7.00;60.20;;;;;;5002474;28;20058;-34
2023/12/05 00:15:10;;;;;;;16.33;10.35;;;7.00;60.30;;;;;;4997260;28;20058;-35
2023/12/05 00:17:38;;;;;;;13.10;9.70;;;7.00;60.30;;;;;;5004883;28;20065;-35
2023/12/05 00:20:06;;;;;;;17.30;10.45;;;7.00;60.30;;;;;;5001719;28;20050;-34
2023/12/05 00:22:34;;;;;;;15.02;10.00;;;7.00;60.30;;;;;;4995830;28;20046;-34
2023/12/05 00:25:03;;;;;;;13.95;9.63;;;7.00;60.30;;;;;;4995313;28;20429;-35
2023/12/05 00:27:30;;;;;;;15.35;9.93;;;7.10;60.40;;;;;;4996771;28;20054;-36
2023/12/05 00:29:57;;;;;;;15.85;10.93;;;7.10;60.40;;;;;;4999635;28;20053;-36
2023/12/05 00:32:24;;;;;;;17.20;11.25;;;7.10;60.50;;;;;;5004450;28;20513;-35
2023/12/05 00:34:52;;;;;;;16.23;10.60;;;7.10;60.50;;;;;;4999402;28;20046;-35
2023/12/05 00:37:18;;;;;;;14.73;10.13;;;7.10;60.50;;;;;;5000088;28;20639;-37
2023/12/05 00:39:45;;;;;;;16.48;10.45;;;7.10;60.40;;;;;;4998787;28;20057;-36
2023/12/05 00:42:14;;;;;;;14.93;10.52;;;7.10;60.40;;;;;;5001398;28;20441;-35
2023/12/05 00:44:41;;;;;;;18.65;11.10;;;7.20;60.50;;;;;;5004550;28;20054;-34
2023/12/05 00:47:08;;;;;;;15.90;10.70;;;7.10;60.50;;;;;;5001270;28;20049;-34
2023/12/05 00:49:35;;;;;;;17.42;10.68;;;7.10;60.50;;;;;;5001491;28;20661;-34
2023/12/05 00:52:03;;;;;;;16.45;11.20;;;7.10;60.50;;;;;;4999205;28;20064;-37
2023/12/05 00:54:31;;;;;;;16.90;11.73;;;7.20;60.70;;;;;;5000715;28;20049;-36
2023/12/05 00:56:58;;;;;;;15.43;11.02;;;7.10;60.60;;;;;;5000587;28;20050;-36
2023/12/05 00:59:26;;;;;;;18.48;11.15;;;7.10;60.70;;;;;;4999056;28;20065;-35
2023/12/05 01:01:54;;;;;;;16.05;10.40;;;7.10;60.80;;;;;;4999853;28;20049;-43
2023/12/05 01:04:21;;;;;;;20.98;10.45;;;7.10;60.80;;;;;;4994361;28;20058;-41
2023/12/05 01:06:48;;;;;;;16.58;10.80;;;7.10;60.90;;;;;;4996758;28;20065;-43
2023/12/05 01:09:15;;;;;;;17.45;11.23;;;7.10;60.80;;;;;;5005287;28;20049;-43
2023/12/05 01:11:42;;;;;;;17.63;11.18;;;7.10;60.80;;;;;;5000953;28;20057;-45
2023/12/05 01:14:10;;;;;;;19.83;11.32;;;7.10;60.90;;;;;;4999227;28;20402;-46
2023/12/05 01:16:43;;;;;;;15.43;10.90;;;7.10;60.90;;;;;;4997212;28;20054;-44
2023/12/05 01:19:11;;;;;;;15.88;10.73;;;7.10;60.90;;;;;;5004952;28;20064;-45
2023/12/05 01:21:38;;;;;;;15.02;10.60;;;7.10;61.00;;;;;;4997759;28;20058;-42
2023/12/05 01:24:05;;;;;;;15.20;10.25;;;7.10;61.00;;;;;;5004334;28;20057;-46
2023/12/05 01:26:33;;;;;;;26.77;10.77;;;7.20;61.10;;;;;;5002094;28;20479;-43
2023/12/05 01:29:02;;;;;;;16.23;10.55;;;7.10;61.10;;;;;;5000943;28;20050;-43
2023/12/05 01:31:29;;;;;;;14.65;10.10;;;7.20;61.20;;;;;;5000836;28;20062;-43
2023/12/05 01:33:58;;;;;;;14.88;10.02;;;7.20;61.30;;;;;;4999063;28;20050;-42
2023/12/05 01:36:26;;;;;;;16.27;10.45;;;7.20;61.30;;;;;;5002193;28;20081;-44
2023/12/05 01:38:54;;;;;;;15.10;10.25;;;7.20;61.30;;;;;;5002376;28;20604;-45
2023/12/05 01:41:21;;;;;;;16.15;10.45;;;7.20;61.30;;;;;;4997694;28;20434;-41
2023/12/05 01:43:49;;;;;;;15.40;9.77;;;7.20;61.30;;;;;;4999017;28;20080;-45
2023/12/05 01:46:17;;;;;;;15.20;10.05;;;7.20;62.00;;;;;;4998563;28;20054;-43
2023/12/05 01:48:45;;;;;;;13.93;10.07;;;7.20;61.30;;;;;;4996047;28;20057;-42
2023/12/05 01:51:15;;;;;;;15.88;10.32;;;7.20;61.30;;;;;;5003267;28;20482;-44
2023/12/05 01:53:43;;;;;;;14.05;10.27;;;7.20;61.30;;;;;;4996767;28;20050;-40
2023/12/05 01:56:12;;;;;;;14.35;9.80;;;7.30;61.40;;;;;;4993875;28;20054;-42
2023/12/05 01:58:40;;;;;;;13.90;9.68;;;7.30;61.40;;;;;;5002557;28;20060;-44
2023/12/05 02:01:09;;;;;;;14.93;9.57;;;7.30;61.40;;;;;;5001984;28;20057;-44
2023/12/05 02:03:37;;;;;;;13.00;8.68;;;7.30;61.40;;;;;;5000308;28;20046;-44
2023/12/05 02:06:05;;;;;;;14.68;8.95;;;7.30;61.40;;;;;;5003666;28;20046;-42
2023/12/05 02:08:34;;;;;;;11.80;8.38;;;7.30;61.40;;;;;;5002340;28;20057;-44
2023/12/05 02:11:01;;;;;;;12.25;8.68;;;7.30;61.50;;;;;;5008428;28;20042;-35
2023/12/05 02:13:29;;;;;;;12.68;8.45;;;7.30;61.60;;;;;;4995913;28;20051;-36
2023/12/05 02:16:03;;;;;;;11.32;7.95;;;7.40;61.70;;;;;;5000949;28;20061;-35
2023/12/05 02:18:37;;;;;;;13.05;8.02;;;7.40;61.80;;;;;;5003614;28;20049;-35
2023/12/05 02:21:06;;;;;;;;;;;7.40;61.80;;;;;;5005914;28;20057;-35
2023/12/05 02:23:55;;;;;;;12.80;7.90;;;7.40;61.80;;;;;;5001478;28;19952;-36
2023/12/05 02:26:30;;;;;;;13.85;8.57;;;7.40;61.70;;;;;;4995460;28;20065;-35
2023/12/05 02:28:58;;;;;;;11.05;7.72;;;7.50;61.70;;;;;;4997524;28;20661;-37
2023/12/05 02:31:25;;;;;;;11.25;7.00;;;7.50;61.70;;;;;;5001534;28;20407;-36
2023/12/05 02:33:53;;;;;;;9.75;7.35;;;7.50;61.80;;;;;;5004463;28;20057;-36
2023/12/05 02:36:27;;;;;;;12.95;7.45;;;7.50;61.90;;;;;;5002686;28;20058;-36
2023/12/05 02:39:07;;;;;;;10.98;7.40;;;7.50;61.90;;;;;;5004776;28;20050;-35
2023/12/05 02:41:37;;;;;;;9.45;6.85;;;7.50;62.00;;;;;;5002002;28;20054;-35
2023/12/05 02:44:11;;;;;;;9.77;7.57;;;7.50;62.00;;;;;;4999848;28;20050;-35
2023/12/05 02:46:41;;;;;;;10.75;7.10;;;7.50;62.00;;;;;;5001609;28;20415;-36
2023/12/05 02:49:10;;;;;;;11.52;7.78;;;7.50;62.00;;;;;;4999977;28;20058;-35
2023/12/05 02:51:37;;;;;;;11.38;7.10;;;7.60;62.10;;;;;;5002804;28;20409;-35
2023/12/05 02:54:06;;;;;;;11.60;7.80;;;7.60;62.10;;;;;;5001607;28;20052;-35
2023/12/05 02:56:34;;;;;;;10.45;7.00;;;7.60;62.00;;;;;;4998491;28;20080;-35
2023/12/05 02:59:01;;;;;;;11.88;7.20;;;7.60;62.00;;;;;;5002716;28;20053;-36
2023/12/05 03:01:30;;;;;;;10.85;7.40;;;7.60;62.00;;;;;;5002030;28;20058;-36
2023/12/05 03:03:57;;;;;;;10.45;6.78;;;7.60;62.10;;;;;;5005240;28;20053;-37
2023/12/05 03:06:27;;;;;;;11.75;7.07;;;7.60;62.10;;;;;;4999892;28;20053;-36
2023/12/05 03:08:54;;;;;;;9.32;6.55;;;7.60;62.20;;;;;;5002997;28;20066;-36
2023/12/05 03:11:21;;;;;;;10.23;6.88;;;7.70;62.30;;;;;;4999833;28;20057;-36
2023/12/05 03:13:48;;;;;;;8.85;6.60;;;7.70;62.30;;;;;;5002705;28;20067;-35
2023/12/05 03:16:15;;;;;;;9.30;6.53;;;7.70;62.40;;;;;;4998989;28;20061;-35
2023/12/05 03:18:44;;;;;;;8.40;6.10;;;7.70;62.40;;;;;;5000852;28;20049;-35
2023/12/05 03:21:16;;;;;;;9.05;6.20;;;7.70;62.40;;;;;;5002004;28;20053;-35
2023/12/05 03:23:43;;;;;;;9.35;6.30;;;7.70;62.40;;;;;;5003684;28;20054;-44
2023/12/05 03:26:18;;;;;;;11.70;6.07;;;7.80;62.50;;;;;;5003091;28;20061;-42
2023/12/05 03:28:45;;;;;;;8.15;5.70;;;7.80;62.60;;;;;;5002860;28;20060;-44
2023/12/05 03:31:12;;;;;;;7.47;5.90;;;7.80;62.50;;;;;;5006457;28;20051;-42
2023/12/05 03:37:03;;;;;;;7.88;6.03;;;7.80;63.00;;;;;;4997569;28;20172;-44
2023/12/05 03:39:30;;;;;;;9.18;6.22;;;7.70;62.80;;;;;;4994812;28;21699;-42
2023/12/05 03:41:57;;;;;;;7.50;5.90;;;7.80;63.00;;;;;;5003089;28;20060;-40
2023/12/05 03:44:24;;;;;;;7.47;5.50;;;7.80;63.10;;;;;;5000809;28;20051;-45
2023/12/05 03:46:51;;;;;;;8.18;5.78;;;7.80;63.10;;;;;;4992747;28;20426;-40
2023/12/05 03:49:19;;;;;;;6.93;5.65;;;7.80;63.10;;;;;;5000966;28;20049;-42
2023/12/05 03:51:46;;;;;;;8.05;5.65;;;7.80;63.10;;;;;;5001087;28;20822;-44
2023/12/05 03:54:14;;;;;;;8.70;5.78;;;7.90;63.10;;;;;;4996065;28;20054;-42
2023/12/05 03:56:42;;;;;;;11.63;6.32;;;7.90;63.10;;;;;;4999517;28;20058;-45
2023/12/05 03:59:09;;;;;;;8.25;6.05;;;7.90;63.00;;;;;;4996635;28;20061;-42
2023/12/05 04:01:36;;;;;;;8.43;5.97;;;7.90;63.00;;;;;;4995737;28;20155;-42
2023/12/05 04:04:04;;;;;;;8.18;5.50;;;8.00;63.10;;;;;;4999180;28;20050;-45
2023/12/05 04:06:31;;;;;;;9.13;6.22;;;8.00;63.10;;;;;;4998607;28;20054;-41
2023/12/05 04:08:58;;;;;;;9.27;6.50;;;8.00;63.20;;;;;;4999690;28;20064;-44
2023/12/05 04:11:35;;;;;;;15.88;6.30;;;8.00;63.20;;;;;;5000095;28;20557;-41
2023/12/05 04:14:03;;;;;;;10.00;7.07;;;8.00;63.20;;;;;;5002381;28;20065;-42
2023/12/05 04:16:30;;;;;;;8.52;6.57;;;8.00;63.20;;;;;;4997322;28;20061;-43
2023/12/05 04:18:57;;;;;;;10.07;7.13;;;8.00;63.20;;;;;;5001948;28;20058;-40
2023/12/05 04:21:26;;;;;;;8.27;6.00;;;8.10;63.20;;;;;;4996978;28;20392;-40
2023/12/05 04:23:53;;;;;;;9.73;6.80;;;8.00;63.10;;;;;;5003425;28;20072;-40
2023/12/05 04:26:21;;;;;;;9.40;7.00;;;8.10;63.10;;;;;;5001555;28;20049;-42
2023/12/05 04:28:50;;;;;;;13.80;6.47;;;8.10;63.10;;;;;;5002395;28;20057;-43
2023/12/05 04:31:17;;;;;;;9.32;6.53;;;8.10;63.10;;;;;;5003205;28;20605;-44
2023/12/05 04:33:44;;;;;;;9.38;6.53;;;8.10;63.20;;;;;;5003982;28;20047;-46
2023/12/05 04:36:12;;;;;;;8.82;6.50;;;8.10;63.30;;;;;;4999752;28;20565;-47
2023/12/05 04:38:40;;;;;;;9.40;6.30;;;8.20;63.30;;;;;;4997022;28;20054;-41
2023/12/05 04:41:07;;;;;;;9.10;6.63;;;8.10;63.40;;;;;;5000799;28;20061;-43
2023/12/05 04:43:35;;;;;;;8.63;6.35;;;8.20;63.50;;;;;;4999973;28;20050;-42
2023/12/05 04:46:03;;;;;;;10.38;7.20;;;8.20;63.50;;;;;;4999370;28;20622;-43
2023/12/05 04:48:31;;;;;;;9.82;6.82;;;8.20;63.50;;;;;;4999922;28;20054;-45
2023/12/05 04:50:58;;;;;;;9.98;7.03;;;8.20;63.60;;;;;;5006905;28;20644;-45
2023/12/05 04:53:25;;;;;;;11.10;6.18;;;8.30;63.60;;;;;;5003532;28;20046;-43
2023/12/05 04:55:52;;;;;;;9.40;6.85;;;8.30;63.60;;;;;;5001557;28;20057;-43
2023/12/05 04:58:19;;;;;;;9.27;6.43;;;8.30;63.60;;;;;;4996469;28;20394;-43
2023/12/05 05:00:47;;;;;;;8.60;6.50;;;8.30;63.60;;;;;;5006847;28;20046;-41
2023/12/05 05:03:17;;;;;;;10.57;7.18;;;8.30;63.60;;;;;;4999589;28;20061;-40
2023/12/05 05:05:44;;;;;;;8.98;6.15;;;8.30;63.60;;;;;;4997994;28;20046;-43
2023/12/05 05:08:11;;;;;;;9.05;6.38;;;8.30;63.50;;;;;;4998487;28;20050;-41
2023/12/05 05:10:39;;;;;;;30.85;14.25;;;8.40;63.60;;;;;;4999705;28;20057;-44
2023/12/05 05:13:06;;;;;;;25.40;13.50;;;8.40;63.60;;;;;;4996639;28;20607;-40
2023/12/05 05:15:33;;;;;;;10.88;7.57;;;8.40;63.60;;;;;;4993115;28;20039;-42
2023/12/05 05:18:00;;;;;;;11.52;6.53;;;8.40;63.50;;;;;;5000532;28;20046;-44
2023/12/05 05:20:29;;;;;;;12.63;7.32;;;8.40;63.60;;;;;;5002878;28;20053;-41
2023/12/05 05:22:56;;;;;;;10.63;7.07;;;8.40;63.60;;;;;;4997829;28;20745;-42
2023/12/05 05:25:23;;;;;;;8.68;6.28;;;8.40;63.60;;;;;;5003888;28;20053;-42
2023/12/05 05:27:50;;;;;;;9.25;6.65;;;8.50;63.80;;;;;;4999457;28;20494;-41
2023/12/05 05:30:18;;;;;;;18.40;10.13;;;8.40;63.80;;;;;;4994008;28;20050;-40
2023/12/05 05:32:45;;;;;;;25.10;11.40;;;8.40;63.80;;;;;;4996055;28;20421;-46
2023/12/05 05:35:12;;;;;;;14.15;8.63;;;8.50;63.90;;;;;;5001153;28;20050;-41
2023/12/05 05:37:41;;;;;;;9.90;6.35;;;8.50;63.90;;;;;;5004354;28;20060;-44
2023/12/05 05:40:09;;;;;;;9.02;6.07;;;8.50;63.90;;;;;;5004719;28;20046;-44
2023/12/05 05:42:36;;;;;;;9.65;5.80;;;8.50;64.00;;;;;;5002963;28;20053;-43
2023/12/05 05:45:05;;;;;;;7.85;5.47;;;8.50;64.00;;;;;;5000877;28;20156;-44
2023/12/05 05:47:32;;;;;;;9.88;6.00;;;8.60;64.10;;;;;;5008539;28;20518;-44
2023/12/05 05:49:59;;;;;;;6.60;4.35;;;8.50;64.10;;;;;;5006409;28;20053;-43
2023/12/05 05:52:26;;;;;;;7.72;5.35;;;8.60;64.20;;;;;;5005220;28;20054;-43
2023/12/05 05:54:55;;;;;;;8.80;5.63;;;8.60;64.20;;;;;;5004352;28;20050;-41
2023/12/05 05:57:22;;;;;;;6.88;4.65;;;8.60;64.20;;;;;;4999605;28;20498;-45
2023/12/05 05:59:49;;;;;;;19.00;9.75;;;8.60;64.20;;;;;;5008086;28;20387;-44
2023/12/05 06:02:17;;;;;;;12.07;7.20;;;8.60;64.10;;;;;;4998766;28;20056;-43
2023/12/05 06:04:45;;;;;;;7.75;5.38;;;8.70;64.20;;;;;;5004696;28;20050;-42
2023/12/05 06:07:12;;;;;;;11.77;5.75;;;8.70;64.20;;;;;;5007100;28;20068;-45
2023/12/05 06:09:39;;;;;;;7.78;5.15;;;8.70;64.10;;;;;;5003705;28;20514;-42
2023/12/05 06:12:08;;;;;;;7.85;4.78;;;8.70;64.10;;;;;;5001736;28;20058;-47
2023/12/05 06:14:35;;;;;;;7.32;4.85;;;8.70;64.10;;;;;;4998295;28;20060;-44
2023/12/05 06:17:03;;;;;;;6.32;4.35;;;8.80;64.10;;;;;;4998493;28;20050;-40
2023/12/05 06:19:30;;;;;;;6.07;4.57;;;8.80;64.10;;;;;;4998583;28;20050;-42
2023/12/05 06:21:57;;;;;;;6.75;4.80;;;8.80;64.00;;;;;;5004577;28;20050;-40
2023/12/05 06:24:26;;;;;;;8.77;4.40;;;8.80;63.90;;;;;;5005225;28;20416;-44
2023/12/05 06:26:54;;;;;;;7.60;4.93;;;8.80;63.90;;;;;;4997674;28;20057;-43
2023/12/05 06:29:22;;;;;;;6.82;4.35;;;8.80;63.90;;;;;;4999370;28;20046;-45
2023/12/05 06:31:49;;;;;;;6.43;5.00;;;8.80;63.80;;;;;;5007684;28;20105;-47
2023/12/05 06:34:16;;;;;;;6.88;4.45;;;8.80;63.80;;;;;;5006371;28;20054;-46
2023/12/05 06:36:44;;;;;;;6.95;4.88;;;8.80;63.80;;;;;;5006618;28;20069;-45
2023/12/05 06:39:11;;;;;;;7.80;4.45;;;8.80;63.80;;;;;;5008676;28;20406;-44
2023/12/05 06:41:38;;;;;;;7.13;4.85;;;8.80;63.90;;;;;;5014110;28;20057;-40
2023/12/05 06:44:06;;;;;;;6.82;4.72;;;8.80;64.00;;;;;;5000310;28;20049;-43
2023/12/05 06:46:34;;;;;;;6.78;4.95;;;8.80;64.00;;;;;;5000397;28;20066;-44
2023/12/05 06:49:03;;;;;;;6.65;4.30;;;8.80;64.10;;;;;;5006066;28;20057;-47
2023/12/05 06:51:30;;;;;;;7.05;4.88;;;8.70;64.10;;;;;;5002929;28;20058;-44
2023/12/05 06:53:57;;;;;;;7.95;5.15;;;8.70;64.00;;;;;;5004962;28;20513;-34
2023/12/05 06:56:24;;;;;;;7.00;4.55;;;8.70;64.10;;;;;;5000496;28;20065;-35
2023/12/05 06:58:52;;;;;;;5.32;4.32;;;8.70;64.10;;;;;;5000316;28;20049;-35
2023/12/05 07:01:19;;;;;;;5.85;4.45;;;8.70;64.00;;;;;;5002650;28;20054;-36
2023/12/05 07:03:47;;;;;;;6.13;4.47;;;8.60;63.90;;;;;;5001343;28;20046;-36
2023/12/05 07:06:15;;;;;;;7.35;4.93;;;8.60;63.90;;;;;;5000587;28;20406;-34
2023/12/05 07:08:42;;;;;;;6.30;4.47;;;8.60;63.90;;;;;;5003505;28;20057;-34
2023/12/05 07:11:09;;;;;;;6.55;4.47;;;8.60;64.00;;;;;;4999928;28;20061;-37
2023/12/05 07:13:36;;;;;;;7.60;4.57;;;8.60;64.10;;;;;;4997553;28;20057;-35
2023/12/05 07:16:04;;;;;;;7.15;4.43;;;8.60;64.10;;;;;;5001556;28;20498;-34
2023/12/05 07:18:31;;;;;;;5.93;4.15;;;8.60;64.30;;;;;;5003739;28;20054;-34
2023/12/05 07:21:00;;;;;;;5.50;3.97;;;8.60;64.40;;;;;;4998982;28;20490;-37
2023/12/05 07:23:27;;;;;;;5.97;3.92;;;8.50;64.50;;;;;;4993790;28;20491;-35
2023/12/05 07:25:56;;;;;;;5.60;4.00;;;8.60;64.70;;;;;;5001000;28;20061;-35
2023/12/05 07:28:23;;;;;;;5.03;3.80;;;8.60;64.70;;;;;;4995617;28;20061;-36
2023/12/05 07:30:51;;;;;;;5.47;3.70;;;8.60;64.80;;;;;;4997541;28;20061;-34
2023/12/05 07:33:18;;;;;;;5.13;3.67;;;8.60;64.80;;;;;;4999742;28;20060;-35
2023/12/05 07:35:45;;;;;;;6.20;3.75;;;8.60;64.80;;;;;;5001804;28;20054;-34
2023/12/05 07:38:15;;;;;;;4.53;3.35;;;8.60;64.80;;;;;;4999753;28;20061;-34
2023/12/05 07:40:42;;;;;;;5.00;3.90;;;8.60;64.90;;;;;;4995908;28;20053;-36
2023/12/05 07:43:09;;;;;;;4.95;3.70;;;8.60;64.90;;;;;;5004631;28;20049;-35
2023/12/05 07:45:36;;;;;;;6.07;3.75;;;8.60;64.90;;;;;;4996832;28;20052;-36
2023/12/05 07:48:04;;;;;;;6.15;3.72;;;8.60;65.00;;;;;;5001088;28;20447;-35
2023/12/05 07:50:31;;;;;;;4.45;3.17;;;8.60;65.10;;;;;;5002056;28;20057;-35
2023/12/05 07:52:59;;;;;;;5.35;3.25;;;8.60;65.20;;;;;;5001121;28;20064;-35
2023/12/05 07:55:27;;;;;;;4.82;3.20;;;8.70;65.30;;;;;;5003104;28;20061;-35
2023/12/05 07:57:55;;;;;;;3.97;2.88;;;8.70;65.40;;;;;;5002270;28;20058;-35
2023/12/05 08:00:22;;;;;;;4.07;2.83;;;8.70;65.50;;;;;;5005129;28;20605;-36
2023/12/05 08:02:49;;;;;;;3.88;2.60;;;8.70;65.50;;;;;;5005081;28;20053;-34
2023/12/05 08:05:17;;;;;;;4.22;2.75;;;8.70;65.60;;;;;;4999616;28;20052;-35
2023/12/05 08:07:44;;;;;;;4.65;2.33;;;8.70;65.60;;;;;;4993949;28;20065;-35
2023/12/05 08:10:11;;;;;;;3.22;2.17;;;8.80;65.70;;;;;;5004953;28;20076;-34
2023/12/05 08:12:40;;;;;;;5.60;2.42;;;8.80;65.70;;;;;;5002917;28;20046;-35
2023/12/05 08:15:08;;;;;;;3.92;2.22;;;8.80;65.70;;;;;;5008512;28;20498;-37
2023/12/05 08:17:35;;;;;;;3.47;2.50;;;8.90;65.80;;;;;;4996072;28;20061;-34
2023/12/05 08:20:03;;;;;;;3.03;1.92;;;8.90;65.70;;;;;;5002383;28;20053;-35
2023/12/05 08:22:30;;;;;;;4.28;2.42;;;8.90;65.70;;;;;;5001417;28;20054;-34
2023/12/05 08:24:58;;;;;;;4.13;2.50;;;9.00;65.80;;;;;;4999698;28;20104;-36
2023/12/05 08:27:25;;;;;;;5.20;2.20;;;9.00;65.80;;;;;;4998380;28;21188;-34
2023/12/05 08:29:54;;;;;;;4.18;2.63;;;9.00;65.80;;;;;;4996491;28;20054;-35
2023/12/05 08:32:21;;;;;;;3.08;2.20;;;9.00;65.80;;;;;;4994625;28;20357;-34
2023/12/05 08:34:49;;;;;;;4.18;2.17;;;9.10;65.80;;;;;;5000469;28;20057;-35
2023/12/05 08:37:16;;;;;;;4.35;2.28;;;9.10;65.80;;;;;;4993204;28;20058;-34
2023/12/05 08:39:43;;;;;;;3.42;2.03;;;9.10;65.80;;;;;;5000960;28;20054;-35
2023/12/05 08:42:10;;;;;;;4.70;1.90;;;9.10;65.80;;;;;;4995029;28;20050;-34
2023/12/05 08:44:37;;;;;;;3.45;2.08;;;9.10;65.80;;;;;;4999672;28;20061;-34
2023/12/05 08:47:06;;;;;;;2.47;1.73;;;9.20;65.90;;;;;;5000055;28;20050;-34
2023/12/05 08:49:33;;;;;;;4.32;1.80;;;9.20;65.90;;;;;;4999561;28;20064;-34
2023/12/05 08:52:01;;;;;;;2.63;1.63;;;9.20;65.90;;;;;;5003414;28;20054;-35
2023/12/05 08:54:28;;;;;;;3.67;1.75;;;9.20;66.00;;;;;;4995802;28;21120;-37
2023/12/05 08:56:55;;;;;;;2.15;1.50;;;9.30;66.20;;;;;;4998428;28;20057;-36
2023/12/05 08:59:22;;;;;;;2.20;1.80;;;9.30;66.20;;;;;;4996547;28;20050;-35
2023/12/05 09:01:50;;;;;;;2.15;1.52;;;9.30;66.20;;;;;;4998508;28;20050;-34
2023/12/05 09:04:18;;;;;;;3.65;1.85;;;9.30;66.20;;;;;;4996452;28;20050;-34
2023/12/05 09:06:44;;;;;;;3.15;1.65;;;9.30;66.20;;;;;;4999445;28;20421;-34
2023/12/05 09:09:12;;;;;;;2.90;1.63;;;9.40;66.20;;;;;;4997586;28;20380;-34
2023/12/05 09:11:39;;;;;;;4.10;1.80;;;9.40;66.20;;;;;;4999016;28;20046;-34
2023/12/05 09:14:07;;;;;;;1.80;1.40;;;9.40;66.10;;;;;;5007261;28;20068;-43
2023/12/05 09:16:34;;;;;;;2.55;1.63;;;9.40;66.10;;;;;;4999679;28;20054;-41
2023/12/05 09:19:02;;;;;;;2.05;1.63;;;9.40;66.00;;;;;;5006793;28;20050;-43
2023/12/05 09:21:30;;;;;;;2.17;1.50;;;9.50;66.10;;;;;;5003729;28;20073;-43
2023/12/05 09:23:57;;;;;;;1.65;1.33;;;9.50;66.10;;;;;;5002963;28;20497;-41
2023/12/05 09:26:25;;;;;;;2.47;1.40;;;9.50;66.10;;;;;;5002140;28;20061;-42
2023/12/05 09:28:52;;;;;;;3.05;1.55;;;9.50;66.10;;;;;;5008673;28;20545;-41
2023/12/05 09:31:19;;;;;;;3.85;1.50;;;9.50;66.00;;;;;;5012686;28;20053;-42
2023/12/05 09:33:46;;;;;;;2.38;1.33;;;9.60;66.00;;;;;;5002995;28;20062;-41
2023/12/05 09:36:14;;;;;;;2.55;1.40;;;9.60;66.00;;;;;;4999784;28;20046;-46
2023/12/05 09:38:42;;;;;;;2.83;1.40;;;9.60;65.90;;;;;;5002510;28;20050;-42
2023/12/05 09:41:12;;;;;;;3.20;1.38;;;9.60;65.80;;;;;;5002634;28;20517;-40
2023/12/05 09:43:44;;;;;;;2.83;1.20;;;9.60;65.80;;;;;;4998212;28;20482;-45
2023/12/05 09:46:13;;;;;;;3.17;1.45;;;9.60;65.70;;;;;;4997466;28;20053;-44
2023/12/05 09:48:46;;;;;;;3.05;1.30;;;9.70;65.80;;;;;;4999374;28;20059;-45
2023/12/05 09:51:15;;;;;;;1.90;1.30;;;9.70;65.80;;;;;;5002719;28;20058;-44
2023/12/05 09:53:45;;;;;;;3.15;1.35;;;9.70;65.70;;;;;;5003307;28;20061;-44
2023/12/05 09:56:13;;;;;;;2.15;1.48;;;9.70;65.70;;;;;;4999438;28;20525;-42
2023/12/05 09:58:43;;;;;;;2.83;1.50;;;9.70;65.70;;;;;;5002066;28;20058;-40
2023/12/05 10:01:10;;;;;;;4.55;1.38;;;9.80;65.80;;;;;;5003423;28;20057;-43
2023/12/05 10:03:41;;;;;;;2.53;1.48;;;9.70;65.70;;;;;;5001676;28;21262;-43
2023/12/05 10:06:10;;;;;;;2.95;1.30;;;9.80;65.80;;;;;;5005562;28;20482;-41
2023/12/05 10:08:38;;;;;;;1.88;1.42;;;9.80;65.70;;;;;;4996714;28;20050;-45
2023/12/05 10:11:09;;;;;;;2.58;1.50;;;9.80;65.70;;;;;;5004294;28;20054;-43
2023/12/05 10:13:39;;;;;;;2.10;1.38;;;9.80;65.70;;;;;;5010787;28;20060;-40
2023/12/05 10:16:08;;;;;;;2.22;1.50;;;9.80;65.70;;;;;;5004802;28;20073;-46
2023/12/05 10:18:36;;;;;;;6.03;3.10;;;9.80;65.70;;;;;;5006351;28;20058;-42
2023/12/05 10:21:04;;;;;;;4.65;1.85;;;9.90;65.80;;;;;;5006339;28;20049;-43
2023/12/05 10:23:32;;;;;;;3.28;1.70;;;9.90;65.80;;;;;;5004409;28;20404;-42
2023/12/05 10:25:59;;;;;;;3.05;1.73;;;9.90;65.80;;;;;;4999692;28;20058;-43
2023/12/05 10:28:28;;;;;;;3.25;2.08;;;9.90;65.80;;;;;;4997365;28;20054;-46
2023/12/05 10:30:57;;;;;;;3.45;1.98;;;9.90;65.90;;;;;;5004552;28;20058;-43
2023/12/05 10:33:24;;;;;;;4.70;3.90;;;9.90;66.00;;;;;;5012097;28;20057;-45
2023/12/05 10:35:51;;;;;;;4.95;3.22;;;9.90;66.00;;;;;;5001123;28;20054;-47
2023/12/05 10:38:19;;;;;;;7.97;5.45;;;10.00;66.10;;;;;;5004594;28;20042;-43
2023/12/05 10:40:57;;;;;;;3.92;2.83;;;10.00;66.20;;;;;;4998810;28;20057;-46
2023/12/05 10:43:25;;;;;;;3.50;2.00;;;10.00;66.20;;;;;;5009314;28;20058;-40
2023/12/05 10:45:55;;;;;;;18.42;3.83;;;10.10;66.30;;;;;;4999696;28;20582;-43
2023/12/05 10:48:24;;;;;;;4.10;1.90;;;10.10;66.40;;;;;;4997027;28;20061;-43
2023/12/05 10:50:52;;;;;;;2.28;1.90;;;10.10;66.30;;;;;;5000752;28;20054;-42
2023/12/05 10:53:19;;;;;;;3.03;2.60;;;10.10;66.30;;;;;;4999309;28;20058;-43
2023/12/05 10:55:47;;;;;;;8.77;4.70;;;10.10;66.20;;;;;;4994872;28;20076;-44
2023/12/05 10:58:15;;;;;;;4.80;3.03;;;10.20;66.10;;;;;;5006265;28;20058;-43
2023/12/05 11:00:43;;;;;;;4.05;2.13;;;10.20;66.10;;;;;;4999901;28;20054;-43
2023/12/05 11:03:14;;;;;;;19.00;11.35;;;10.20;66.10;;;;;;5001693;28;20050;-45
2023/12/05 11:05:41;;;;;;;27.92;15.60;;;10.20;66.30;;;;;;5000232;28;20068;-41
2023/12/05 11:08:08;;;;;;;16.30;9.85;;;10.30;66.30;;;;;;5004715;28;20517;-43
2023/12/05 11:10:35;;;;;;;10.20;5.00;;;10.30;66.40;;;;;;5001399;28;20513;-39
2023/12/05 11:13:03;;;;;;;6.13;3.70;;;10.30;66.40;;;;;;5013543;28;20045;-45
2023/12/05 11:15:35;;;;;;;4.03;3.33;;;10.30;66.30;;;;;;5022080;28;20054;-43
2023/12/05 11:18:11;;;;;;;2.80;2.00;;;10.40;66.40;;;;;;5017157;28;20049;-43
2023/12/05 11:20:58;;;;;;;2.78;1.70;;;10.40;66.20;;;;;;5025361;28;20056;-42
2023/12/05 11:23:45;;;;;;;2.25;1.73;;;10.40;66.10;;;;;;5023721;28;20058;-43
2023/12/05 11:26:33;;;;;;;4.53;1.90;;;10.50;66.00;;;;;;5021651;28;20056;-44
2023/12/05 11:29:13;;;;;;;5.55;2.90;;;10.50;65.70;;;;;;5027037;28;20045;-41
2023/12/05 11:31:49;;;;;;;2.95;1.45;;;10.50;65.50;;;;;;5014166;28;20058;-45
2023/12/05 11:34:31;;;;;;;2.35;1.10;;;10.60;65.50;;;;;;5028072;28;20057;-46
2023/12/05 11:37:30;;;;;;;2.22;1.30;;;10.60;65.40;;;;;;5018990;28;20061;-43
2023/12/05 11:39:57;;;;;;;2.75;1.05;;;10.60;65.30;;;;;;5022767;28;20049;-42
2023/12/05 11:42:24;;;;;;;1.55;1.00;;;10.60;65.30;;;;;;5024265;28;20068;-43
2023/12/05 11:44:52;;;;;;;2.35;1.10;;;10.60;65.40;;;;;;5019801;28;20060;-42
2023/12/05 11:47:24;;;;;;;3.33;1.30;;;10.70;65.40;;;;;;5020241;28;20570;-39
2023/12/05 11:49:53;;;;;;;1.67;1.17;;;10.70;65.30;;;;;;5017137;28;20054;-41
2023/12/05 11:52:23;;;;;;;1.38;1.10;;;10.70;65.30;;;;;;5015895;28;20061;-44
2023/12/05 11:54:52;;;;;;;2.08;1.60;;;10.70;65.20;;;;;;5016746;28;20068;-42
2023/12/05 11:57:21;;;;;;;1.60;1.30;;;10.70;65.10;;;;;;5022030;28;20060;-41
2023/12/05 11:59:51;;;;;;;1.42;0.90;;;10.70;64.90;;;;;;5020113;28;20053;-47
2023/12/05 12:02:25;;;;;;;2.95;1.23;;;10.70;64.90;;;;;;5024366;28;20081;-43
2023/12/05 12:05:00;;;;;;;1.70;1.10;;;10.80;64.90;;;;;;5017235;28;20076;-40
2023/12/05 12:07:29;;;;;;;2.95;1.08;;;10.80;64.80;;;;;;5024401;28;20050;-44
2023/12/05 12:09:56;;;;;;;1.85;1.15;;;10.80;65.10;;;;;;5022357;28;20057;-46
2023/12/05 12:12:23;;;;;;;2.83;1.58;;;10.80;64.70;;;;;;5022008;28;20061;-43
2023/12/05 12:14:51;;;;;;;3.75;1.30;;;10.80;64.60;;;;;;5027730;28;20049;-44
2023/12/05 12:17:18;;;;;;;1.45;0.90;;;10.80;64.40;;;;;;5025259;28;20414;-43
2023/12/05 12:19:45;;;;;;;2.28;0.90;;;10.80;64.30;;;;;;5032162;28;20409;-45
2023/12/05 12:22:13;;;;;;;1.67;0.70;;;10.80;64.30;;;;;;5025842;28;20053;-44
2023/12/05 12:24:41;;;;;;;1.95;0.60;;;10.80;64.20;;;;;;5019553;28;20060;-44
2023/12/05 12:27:09;;;;;;;0.93;0.70;;;10.80;63.90;;;;;;5022873;28;20057;-43
2023/12/05 12:29:37;;;;;;;0.95;0.70;;;10.80;63.80;;;;;;5022358;28;20490;-45
2023/12/05 12:32:07;;;;;;;0.88;0.70;;;10.80;63.60;;;;;;5033499;28;20064;-43
2023/12/05 12:34:34;;;;;;;4.00;0.60;;;10.80;63.50;;;;;;5017469;28;20422;-41
2023/12/05 12:37:02;;;;;;;1.65;0.50;;;10.80;63.40;;;;;;5023178;28;20061;-45
2023/12/05 12:39:30;;;;;;;2.22;0.80;;;10.80;63.30;;;;;;5021408;28;20053;-46
2023/12/05 12:42:00;;;;;;;0.47;0.30;;;10.80;63.20;;;;;;5024327;28;20076;-48
2023/12/05 12:44:27;;;;;;;0.95;0.50;;;10.80;63.00;;;;;;5016729;28;20053;-44
2023/12/05 12:46:55;;;;;;;2.40;1.58;;;10.80;62.70;;;;;;5018216;28;20053;-44
2023/12/05 12:49:22;;;;;;;2.38;0.68;;;10.80;62.70;;;;;;5017981;28;20406;-45
2023/12/05 12:51:50;;;;;;;0.32;0.32;;;10.70;62.60;;;;;;5014374;28;20076;-44
2023/12/05 12:54:18;;;;;;;2.80;0.90;;;10.70;62.40;;;;;;5014029;28;20045;-45
2023/12/05 12:56:46;;;;;;;1.17;0.80;;;10.70;62.40;;;;;;5021816;28;20074;-41
2023/12/05 12:59:14;;;;;;;0.85;0.40;;;10.60;62.30;;;;;;5021793;28;20054;-45